createdAt,value
2022-12-05T00:02:01.180Z,20.82
2022-12-05T00:04:29.381Z,20.80
2022-12-05T00:06:57.306Z,20.77
2022-12-05T00:09:25.189Z,20.77
2022-12-05T00:11:53.121Z,20.74
2022-12-05T00:14:20.996Z,20.70
2022-12-05T00:16:48.843Z,20.69
2022-12-05T00:19:16.897Z,20.68
2022-12-05T00:21:44.746Z,20.65
2022-12-05T00:24:12.522Z,20.65
2022-12-05T00:26:40.382Z,20.64
2022-12-05T00:29:08.165Z,20.65
2022-12-05T00:31:36.132Z,20.63
2022-12-05T00:34:03.974Z,20.61
2022-12-05T00:36:31.921Z,20.56
2022-12-05T00:38:59.764Z,20.50
2022-12-05T00:41:27.518Z,20.52
2022-12-05T00:43:56.643Z,20.52
2022-12-05T00:46:24.536Z,20.50
2022-12-05T00:48:52.491Z,20.51
2022-12-05T00:51:20.323Z,20.45
2022-12-05T00:53:48.365Z,20.47
2022-12-05T00:56:16.168Z,20.42
2022-12-05T00:58:44.087Z,20.40
2022-12-05T01:01:12.022Z,20.46
2022-12-05T01:03:39.858Z,20.41
2022-12-05T01:06:07.715Z,20.39
2022-12-05T01:08:35.640Z,20.36
2022-12-05T01:11:03.753Z,20.38
2022-12-05T01:13:31.652Z,20.37
2022-12-05T01:15:59.546Z,20.33
2022-12-05T01:18:27.503Z,20.33
2022-12-05T01:20:55.387Z,20.30
2022-12-05T01:23:23.174Z,20.32
2022-12-05T01:25:50.960Z,20.31
2022-12-05T01:28:18.744Z,20.32
2022-12-05T01:30:46.560Z,20.31
2022-12-05T01:33:14.717Z,20.30
2022-12-05T01:35:42.494Z,20.32
2022-12-05T01:38:10.491Z,20.31
2022-12-05T01:40:38.244Z,20.31
2022-12-05T01:43:05.997Z,20.31
2022-12-05T01:45:33.837Z,20.30
2022-12-05T01:48:01.643Z,20.29
2022-12-05T01:50:29.451Z,20.29
2022-12-05T01:52:57.537Z,20.26
2022-12-05T01:55:25.306Z,20.29
2022-12-05T01:57:53.148Z,20.29
2022-12-05T02:00:21.290Z,20.27
2022-12-05T02:02:49.106Z,20.28
2022-12-05T02:05:17.154Z,20.28
2022-12-05T02:07:44.978Z,20.29
2022-12-05T02:10:12.958Z,20.28
2022-12-05T02:12:40.744Z,20.24
2022-12-05T02:15:08.501Z,20.23
2022-12-05T02:17:36.412Z,20.19
2022-12-05T02:20:04.349Z,20.18
2022-12-05T02:22:32.184Z,20.14
2022-12-05T02:24:59.955Z,20.12
2022-12-05T02:27:27.776Z,20.10
2022-12-05T02:29:55.885Z,20.10
2022-12-05T02:32:27.906Z,20.09
2022-12-05T02:34:55.677Z,20.09
2022-12-05T02:37:23.459Z,20.09
2022-12-05T02:39:51.243Z,20.07
2022-12-05T02:42:19.102Z,20.08
2022-12-05T02:44:46.863Z,20.08
2022-12-05T02:47:14.644Z,20.09
2022-12-05T02:49:43.695Z,20.06
2022-12-05T02:52:11.440Z,20.06
2022-12-05T02:54:39.409Z,20.07
2022-12-05T02:57:07.196Z,20.07
2022-12-05T02:59:35.100Z,20.05
2022-12-05T03:02:02.874Z,20.07
2022-12-05T03:04:30.770Z,20.08
2022-12-05T03:06:59.115Z,20.10
2022-12-05T03:09:27.318Z,20.09
2022-12-05T03:11:55.083Z,20.08
2022-12-05T03:14:22.894Z,20.08
2022-12-05T03:16:50.735Z,20.08
2022-12-05T03:19:18.713Z,20.10
2022-12-05T03:21:46.427Z,20.09
2022-12-05T03:24:14.207Z,20.10
2022-12-05T03:26:42.059Z,20.09
2022-12-05T03:29:10.207Z,20.08
2022-12-05T03:31:38.096Z,20.07
2022-12-05T03:34:05.874Z,20.05
2022-12-05T03:36:33.678Z,20.08
2022-12-05T03:39:01.497Z,20.09
2022-12-05T03:41:29.327Z,20.10
2022-12-05T03:43:57.223Z,20.08
2022-12-05T03:46:25.053Z,20.07
2022-12-05T03:48:52.977Z,20.08
2022-12-05T03:51:21.028Z,20.07
2022-12-05T03:53:48.770Z,20.06
2022-12-05T03:56:16.846Z,20.05
2022-12-05T03:58:44.573Z,20.03
2022-12-05T04:01:12.364Z,20.02
2022-12-05T04:03:40.498Z,20.01
2022-12-05T04:06:08.398Z,20.00
2022-12-05T04:08:36.168Z,19.99
2022-12-05T04:11:04.001Z,19.98
2022-12-05T04:13:31.775Z,19.97
2022-12-05T04:16:17.184Z,19.95
2022-12-05T04:18:45.110Z,19.96
2022-12-05T04:21:30.379Z,19.98
2022-12-05T04:24:15.477Z,19.99
2022-12-05T04:26:43.234Z,19.99
2022-12-05T04:29:10.949Z,19.99
2022-12-05T04:31:38.867Z,19.99
2022-12-05T04:34:06.699Z,20.00
2022-12-05T04:36:34.478Z,20.00
2022-12-05T04:39:02.299Z,20.01
2022-12-05T04:41:30.185Z,20.00
2022-12-05T04:43:58.146Z,20.00
2022-12-05T04:46:25.955Z,19.99
2022-12-05T04:48:53.842Z,20.00
2022-12-05T04:51:21.600Z,20.02
2022-12-05T04:53:55.549Z,20.01
2022-12-05T04:56:23.329Z,20.02
2022-12-05T04:58:51.147Z,20.01
2022-12-05T05:01:19.000Z,20.02
2022-12-05T05:03:46.773Z,20.01
2022-12-05T05:06:14.587Z,20.02
2022-12-05T05:08:42.387Z,20.02
2022-12-05T05:11:10.154Z,20.03
2022-12-05T05:13:38.036Z,20.02
2022-12-05T05:16:05.863Z,20.01
2022-12-05T05:18:33.804Z,20.01
2022-12-05T05:21:01.615Z,19.99
2022-12-05T05:23:29.368Z,19.97
2022-12-05T05:25:57.208Z,19.97
2022-12-05T05:28:25.016Z,19.98
2022-12-05T05:30:52.897Z,19.96
2022-12-05T05:33:20.673Z,19.97
2022-12-05T05:35:48.520Z,19.97
2022-12-05T05:38:16.266Z,19.96
2022-12-05T05:40:44.129Z,19.98
2022-12-05T05:43:12.020Z,19.96
2022-12-05T05:45:40.182Z,19.96
2022-12-05T05:48:08.358Z,19.96
2022-12-05T05:50:36.261Z,19.97
2022-12-05T05:53:04.237Z,19.96
2022-12-05T05:55:33.842Z,19.96
2022-12-05T05:58:01.672Z,19.97
2022-12-05T06:00:29.504Z,19.96
2022-12-05T06:02:57.580Z,19.94
2022-12-05T06:05:25.422Z,19.96
2022-12-05T06:07:53.316Z,19.97
2022-12-05T06:10:21.113Z,19.98
2022-12-05T06:12:48.926Z,19.96
2022-12-05T06:15:16.775Z,19.98
2022-12-05T06:17:44.539Z,19.98
2022-12-05T06:20:12.397Z,20.00
2022-12-05T06:22:40.181Z,20.01
2022-12-05T06:25:07.979Z,19.98
2022-12-05T06:27:37.163Z,19.99
2022-12-05T06:30:05.043Z,19.99
2022-12-05T06:32:32.775Z,19.99
2022-12-05T06:35:00.631Z,19.97
2022-12-05T06:37:28.474Z,19.98
2022-12-05T06:39:56.564Z,19.97
2022-12-05T06:42:24.758Z,19.98
2022-12-05T06:44:52.484Z,19.97
2022-12-05T06:47:20.307Z,19.96
2022-12-05T06:49:48.124Z,19.96
2022-12-05T06:52:16.042Z,19.94
2022-12-05T06:54:43.830Z,19.93
2022-12-05T06:57:11.640Z,19.91
2022-12-05T06:59:39.517Z,19.92
2022-12-05T07:02:08.316Z,19.89
2022-12-05T07:04:36.333Z,19.91
2022-12-05T07:07:04.119Z,19.89
2022-12-05T07:12:24.347Z,19.87
2022-12-05T07:14:52.090Z,19.84
2022-12-05T07:17:19.866Z,19.83
2022-12-05T07:19:47.622Z,19.83
2022-12-05T07:22:16.190Z,19.82
2022-12-05T07:24:44.164Z,19.82
2022-12-05T07:27:11.948Z,19.82
2022-12-05T07:29:39.674Z,19.80
2022-12-05T07:32:07.582Z,19.83
2022-12-05T07:34:35.378Z,19.81
2022-12-05T07:37:03.341Z,19.81
2022-12-05T07:39:31.146Z,19.81
2022-12-05T07:41:58.910Z,19.79
2022-12-05T07:44:26.731Z,19.79
2022-12-05T07:46:54.510Z,19.80
2022-12-05T07:49:22.329Z,19.82
2022-12-05T07:51:51.472Z,19.81
2022-12-05T07:54:19.350Z,19.81
2022-12-05T07:56:48.154Z,19.83
2022-12-05T07:59:16.037Z,19.85
2022-12-05T08:01:43.936Z,19.85
2022-12-05T08:04:15.254Z,19.83
2022-12-05T08:06:43.525Z,19.84
2022-12-05T08:09:11.369Z,19.86
2022-12-05T08:11:39.247Z,19.87
2022-12-05T08:14:07.076Z,19.85
2022-12-05T08:16:34.927Z,19.85
2022-12-05T08:19:02.750Z,19.83
2022-12-05T08:21:30.533Z,19.83
2022-12-05T08:23:58.409Z,19.85
2022-12-05T08:26:26.176Z,19.86
2022-12-05T08:28:53.899Z,19.88
2022-12-05T08:31:24.436Z,19.88
2022-12-05T08:33:57.207Z,19.88
2022-12-05T08:36:26.602Z,19.85
2022-12-05T08:38:54.374Z,19.89
2022-12-05T08:41:22.170Z,19.89
2022-12-05T08:43:49.954Z,19.87
2022-12-05T08:46:17.750Z,19.86
2022-12-05T08:48:45.573Z,19.86
2022-12-05T08:51:13.706Z,19.85
2022-12-05T08:53:44.625Z,19.85
2022-12-05T08:56:12.716Z,19.84
2022-12-05T08:58:40.590Z,19.86
2022-12-05T09:01:08.461Z,19.82
2022-12-05T09:03:36.551Z,19.82
2022-12-05T09:06:04.347Z,19.79
2022-12-05T09:08:32.087Z,19.77
2022-12-05T09:10:59.922Z,19.75
2022-12-05T09:13:28.259Z,19.74
2022-12-05T09:15:56.075Z,19.72
2022-12-05T09:18:23.875Z,19.72
2022-12-05T09:20:51.770Z,19.72
2022-12-05T09:23:19.520Z,19.73
2022-12-05T09:25:47.360Z,19.71
2022-12-05T09:28:15.225Z,19.71
2022-12-05T09:30:43.912Z,19.72
2022-12-05T09:33:11.743Z,19.71
2022-12-05T09:35:39.561Z,19.71
2022-12-05T09:38:07.387Z,19.71
2022-12-05T09:40:35.164Z,19.71
2022-12-05T09:43:02.968Z,19.72
2022-12-05T09:45:30.748Z,19.71
2022-12-05T09:47:58.584Z,19.71
2022-12-05T09:50:26.685Z,19.70
2022-12-05T09:52:54.493Z,19.72
2022-12-05T09:55:22.395Z,19.73
2022-12-05T09:57:50.136Z,19.73
2022-12-05T10:00:17.916Z,19.73
2022-12-05T10:02:45.824Z,19.73
2022-12-05T10:05:13.602Z,19.74
2022-12-05T10:07:41.425Z,19.76
2022-12-05T10:10:11.315Z,19.75
2022-12-05T10:12:41.263Z,19.75
2022-12-05T10:15:09.180Z,19.76
2022-12-05T10:17:36.962Z,19.74
2022-12-05T10:20:04.776Z,19.77
2022-12-05T10:22:32.532Z,19.74
2022-12-05T10:25:00.572Z,19.74
2022-12-05T10:27:28.567Z,19.76
2022-12-05T10:29:57.370Z,19.74
2022-12-05T10:32:25.184Z,19.74
2022-12-05T10:34:52.981Z,19.76
2022-12-05T10:37:20.787Z,19.76
2022-12-05T10:39:48.593Z,19.76
2022-12-05T10:42:16.381Z,19.75
2022-12-05T10:44:44.552Z,19.73
2022-12-05T10:47:12.434Z,19.75
2022-12-05T10:49:40.305Z,19.73
2022-12-05T10:52:08.267Z,19.73
2022-12-05T10:54:36.122Z,19.72
2022-12-05T10:57:04.132Z,19.70
2022-12-05T10:59:31.972Z,19.67
2022-12-05T11:02:01.102Z,19.65
2022-12-05T11:04:29.616Z,19.65
2022-12-05T11:06:57.426Z,19.64
2022-12-05T11:09:25.293Z,19.64
2022-12-05T11:11:53.108Z,19.64
2022-12-05T11:14:20.887Z,19.66
2022-12-05T11:16:48.751Z,19.64
2022-12-05T11:19:16.730Z,19.64
2022-12-05T11:21:44.471Z,19.65
2022-12-05T11:24:12.272Z,19.66
2022-12-05T11:26:40.056Z,19.66
2022-12-05T11:29:07.878Z,19.66
2022-12-05T11:31:35.678Z,19.64
2022-12-05T11:34:03.513Z,19.65
2022-12-05T11:36:31.282Z,19.66
2022-12-05T11:38:59.049Z,19.66
2022-12-05T11:41:26.888Z,19.67
2022-12-05T11:43:54.694Z,19.66
2022-12-05T11:46:26.995Z,19.68
2022-12-05T11:48:55.101Z,19.67
2022-12-05T11:51:22.885Z,19.69
2022-12-05T11:53:50.639Z,19.69
2022-12-05T11:56:18.636Z,19.67
2022-12-05T11:58:46.587Z,19.71
2022-12-05T12:01:14.393Z,19.71
2022-12-05T12:03:42.205Z,19.71
2022-12-05T12:06:09.945Z,19.71
2022-12-05T12:08:37.756Z,19.72
2022-12-05T12:11:06.688Z,19.70
2022-12-05T12:13:34.550Z,19.71
2022-12-05T12:16:07.946Z,19.71
2022-12-05T12:18:36.439Z,19.71
2022-12-05T12:21:04.257Z,19.71
2022-12-05T12:23:32.019Z,19.71
2022-12-05T12:25:59.829Z,19.75
2022-12-05T12:28:27.661Z,19.72
2022-12-05T12:30:55.484Z,19.71
2022-12-05T12:33:27.115Z,19.69
2022-12-05T12:35:55.276Z,19.68
2022-12-05T12:38:23.158Z,19.67
2022-12-05T12:40:51.000Z,19.65
2022-12-05T12:43:51.652Z,19.64
2022-12-05T12:46:11.028Z,19.64
2022-12-05T12:48:39.220Z,19.64
2022-12-05T12:51:07.063Z,19.63
2022-12-05T12:53:35.112Z,19.65
2022-12-05T12:56:02.865Z,19.63
2022-12-05T12:58:30.662Z,19.65
2022-12-05T13:00:58.450Z,19.65
2022-12-05T13:03:26.446Z,19.65
2022-12-05T13:05:54.228Z,19.65
2022-12-05T13:08:22.375Z,19.66
2022-12-05T13:10:50.247Z,19.66
2022-12-05T13:13:18.118Z,19.65
2022-12-05T13:15:47.411Z,19.67
2022-12-05T13:18:15.241Z,19.65
2022-12-05T13:20:43.045Z,19.65
2022-12-05T13:23:10.776Z,19.64
2022-12-05T13:25:40.192Z,19.64
2022-12-05T13:28:08.417Z,19.65
2022-12-05T13:30:56.187Z,19.65
2022-12-05T13:33:25.599Z,19.64
2022-12-05T13:36:15.661Z,19.67
2022-12-05T13:39:02.504Z,19.66
2022-12-05T13:41:47.730Z,19.66
2022-12-05T13:44:15.906Z,19.67
2022-12-05T13:46:43.707Z,19.68
2022-12-05T13:49:15.756Z,19.68
2022-12-05T13:51:44.871Z,19.69
2022-12-05T13:54:12.633Z,19.69
2022-12-05T13:56:40.420Z,19.67
2022-12-05T13:59:08.180Z,19.67
2022-12-05T14:01:39.398Z,19.65
2022-12-05T14:04:11.966Z,19.66
2022-12-05T14:06:39.850Z,19.67
2022-12-05T14:09:07.629Z,19.66
2022-12-05T14:11:35.580Z,19.67
2022-12-05T14:14:05.034Z,19.66
2022-12-05T14:16:34.325Z,19.64
2022-12-05T14:19:02.247Z,19.62
2022-12-05T14:21:30.034Z,19.59
2022-12-05T14:23:57.866Z,19.60
2022-12-05T14:26:32.008Z,19.59
2022-12-05T14:28:59.856Z,19.58
2022-12-05T14:31:27.930Z,19.59
2022-12-05T14:33:55.675Z,19.61
2022-12-05T14:36:30.409Z,19.61
2022-12-05T14:38:58.177Z,19.63
2022-12-05T14:41:25.970Z,19.66
2022-12-05T14:43:53.833Z,19.69
2022-12-05T14:46:21.716Z,22.28
2022-12-05T14:48:49.594Z,30.66
2022-12-05T14:51:17.374Z,35.63
2022-12-05T14:53:45.174Z,37.94
2022-12-05T14:56:13.387Z,38.75
2022-12-05T14:58:41.144Z,38.69
2022-12-05T15:01:09.119Z,38.18
2022-12-05T15:03:37.037Z,37.51
2022-12-05T15:06:04.810Z,36.72
2022-12-05T15:08:32.914Z,35.91
2022-12-05T15:11:00.636Z,35.07
2022-12-05T15:13:28.621Z,34.24
2022-12-05T15:15:56.409Z,33.50
2022-12-05T15:18:24.233Z,32.76
2022-12-05T15:20:52.075Z,32.08
2022-12-05T15:23:19.881Z,31.47
2022-12-05T15:25:47.708Z,31.86
2022-12-05T15:28:15.560Z,33.36
2022-12-05T15:30:43.315Z,35.45
2022-12-05T15:33:11.495Z,37.55
2022-12-05T15:35:39.251Z,39.28
2022-12-05T15:38:09.293Z,40.31
2022-12-05T15:40:37.959Z,40.54
2022-12-05T15:43:05.737Z,40.22
2022-12-05T15:45:33.480Z,39.48
2022-12-05T15:48:01.247Z,38.55
2022-12-05T15:50:28.980Z,37.58
2022-12-05T15:52:56.786Z,36.57
2022-12-05T15:55:24.558Z,35.65
2022-12-05T15:57:52.568Z,34.68
2022-12-05T16:00:22.514Z,33.76
2022-12-05T16:02:50.324Z,32.96
2022-12-05T16:05:18.189Z,32.25
2022-12-05T16:07:46.046Z,31.57
2022-12-05T16:10:14.456Z,30.96
2022-12-05T16:12:42.851Z,30.36
2022-12-05T16:15:10.641Z,29.81
2022-12-05T16:17:38.417Z,29.27
2022-12-05T16:20:06.235Z,28.77
2022-12-05T16:22:34.576Z,28.28
2022-12-05T16:25:02.420Z,27.85
2022-12-05T16:27:30.208Z,27.42
2022-12-05T16:29:58.334Z,26.94
2022-12-05T16:32:26.269Z,26.56
2022-12-05T16:34:54.002Z,26.24
2022-12-05T16:37:21.965Z,25.93
2022-12-05T16:39:49.706Z,25.67
2022-12-05T16:42:17.540Z,26.05
2022-12-05T16:44:45.397Z,27.66
2022-12-05T16:47:13.152Z,29.31
2022-12-05T16:49:46.079Z,30.32
2022-12-05T16:52:14.783Z,30.59
2022-12-05T16:54:42.812Z,30.42
2022-12-05T16:57:10.675Z,29.95
2022-12-05T16:59:38.530Z,29.47
2022-12-05T17:02:06.406Z,28.86
2022-12-05T17:04:34.406Z,28.24
2022-12-05T17:07:02.213Z,27.67
2022-12-05T17:09:30.144Z,27.12
2022-12-05T17:11:57.898Z,26.62
2022-12-05T17:14:26.035Z,26.32
2022-12-05T17:16:53.907Z,26.90
2022-12-05T17:19:21.795Z,29.62
2022-12-05T17:21:49.907Z,34.01
2022-12-05T17:24:18.035Z,36.65
2022-12-05T17:26:46.218Z,37.92
2022-12-05T17:29:14.103Z,38.97
2022-12-05T17:31:42.044Z,40.03
2022-12-05T17:34:09.895Z,40.70
2022-12-05T17:36:37.717Z,40.55
2022-12-05T17:39:05.627Z,39.96
2022-12-05T17:41:33.401Z,39.09
2022-12-05T17:44:01.444Z,38.08
2022-12-05T17:46:29.304Z,37.03
2022-12-05T17:48:57.422Z,36.05
2022-12-05T17:51:25.249Z,35.09
2022-12-05T17:53:54.616Z,34.12
2022-12-05T17:56:22.899Z,33.23
2022-12-05T17:58:50.919Z,32.40
2022-12-05T18:01:19.499Z,31.64
2022-12-05T18:03:47.369Z,31.01
2022-12-05T18:06:15.649Z,30.34
2022-12-05T18:08:45.008Z,29.68
2022-12-05T18:11:12.786Z,29.11
2022-12-05T18:13:40.556Z,28.58
2022-12-05T18:16:08.412Z,28.09
2022-12-05T18:18:36.316Z,27.63
2022-12-05T18:21:04.159Z,27.21
2022-12-05T18:23:31.966Z,26.78
2022-12-05T18:26:00.208Z,26.39
2022-12-05T18:28:28.231Z,26.05
2022-12-05T18:30:56.008Z,25.69
2022-12-05T18:33:23.776Z,25.44
2022-12-05T18:35:51.541Z,25.21
2022-12-05T18:38:19.409Z,25.32
2022-12-05T18:40:47.285Z,25.39
2022-12-05T18:43:15.156Z,25.31
2022-12-05T18:45:42.954Z,25.16
2022-12-05T18:48:31.511Z,25.00
2022-12-05T18:50:58.606Z,24.82
2022-12-05T18:53:26.410Z,24.63
2022-12-05T18:58:42.051Z,24.37
2022-12-05T19:01:09.903Z,25.29
2022-12-05T19:03:37.776Z,27.76
2022-12-05T19:06:05.656Z,32.36
2022-12-05T19:08:33.626Z,36.55
2022-12-05T19:11:01.435Z,39.61
2022-12-05T19:13:29.412Z,41.57
2022-12-05T19:15:57.204Z,42.88
2022-12-05T19:18:25.094Z,43.57
2022-12-05T19:20:52.881Z,43.62
2022-12-05T19:23:20.619Z,43.05
2022-12-05T19:25:48.388Z,42.20
2022-12-05T19:28:16.222Z,41.15
2022-12-05T19:30:44.036Z,40.06
2022-12-05T19:33:12.043Z,38.95
2022-12-05T19:35:39.824Z,37.78
2022-12-05T19:38:07.614Z,36.70
2022-12-05T19:40:35.376Z,35.65
2022-12-05T19:43:04.359Z,34.61
2022-12-05T19:45:32.170Z,33.71
2022-12-05T19:47:59.968Z,32.84
2022-12-05T19:50:28.577Z,32.06
2022-12-05T19:52:56.369Z,31.29
2022-12-05T19:55:24.082Z,30.69
2022-12-05T19:57:52.071Z,30.09
2022-12-05T20:00:19.942Z,29.53
2022-12-05T20:02:50.354Z,28.97
2022-12-05T20:05:18.396Z,28.42
2022-12-05T20:07:46.458Z,27.92
2022-12-05T20:10:14.681Z,27.49
2022-12-05T20:12:42.433Z,27.10
2022-12-05T20:15:10.567Z,26.74
2022-12-05T20:17:38.376Z,26.36
2022-12-05T20:20:06.165Z,26.02
2022-12-05T20:22:33.966Z,25.72
2022-12-05T20:25:02.081Z,25.45
2022-12-05T20:27:29.843Z,25.43
2022-12-05T20:29:58.235Z,25.49
2022-12-05T20:32:26.223Z,25.44
2022-12-05T20:34:54.275Z,25.29
2022-12-05T20:37:22.273Z,25.14
2022-12-05T20:39:51.135Z,24.94
2022-12-05T20:42:19.002Z,24.78
2022-12-05T20:44:46.842Z,24.60
2022-12-05T20:47:14.909Z,24.44
2022-12-05T20:49:42.721Z,24.27
2022-12-05T20:52:10.547Z,24.12
2022-12-05T20:54:38.280Z,23.96
2022-12-05T20:57:06.091Z,23.83
2022-12-05T20:59:33.934Z,23.70
2022-12-05T21:02:01.771Z,23.55
2022-12-05T21:04:29.715Z,23.39
2022-12-05T21:06:57.479Z,23.23
2022-12-05T21:09:29.474Z,23.12
2022-12-05T21:11:57.459Z,22.98
2022-12-05T21:14:25.257Z,22.89
2022-12-05T21:16:53.482Z,22.78
2022-12-05T21:19:21.278Z,22.65
2022-12-05T21:21:49.153Z,22.57
2022-12-05T21:24:17.056Z,22.46
2022-12-05T21:26:45.071Z,22.39
2022-12-05T21:29:12.961Z,22.32
2022-12-05T21:31:40.835Z,22.26
2022-12-05T21:34:08.611Z,22.21
2022-12-05T21:36:36.426Z,22.16
2022-12-05T21:39:04.186Z,22.13
2022-12-05T21:41:31.934Z,22.09
2022-12-05T21:43:59.759Z,22.04
2022-12-05T21:46:27.646Z,22.00
2022-12-05T21:48:55.453Z,21.97
2022-12-05T21:51:23.259Z,21.94
2022-12-05T21:53:51.098Z,21.90
2022-12-05T21:56:18.901Z,21.86
2022-12-05T21:58:46.721Z,21.83
2022-12-05T22:01:15.231Z,21.79
2022-12-05T22:03:43.600Z,21.78
2022-12-05T22:06:11.364Z,21.74
2022-12-05T22:08:39.287Z,21.71
2022-12-05T22:11:07.135Z,21.68
2022-12-05T22:13:34.932Z,21.65
2022-12-05T22:16:10.435Z,21.62
2022-12-05T22:18:54.739Z,21.58
2022-12-05T22:21:30.903Z,21.53
2022-12-05T22:24:14.536Z,21.52
2022-12-05T22:26:54.185Z,21.49
2022-12-05T22:29:24.613Z,21.44
2022-12-05T22:31:55.747Z,21.43
2022-12-05T22:34:26.950Z,21.41
2022-12-05T22:37:04.100Z,21.41
2022-12-05T22:39:39.328Z,21.39
2022-12-05T22:42:10.076Z,21.37
2022-12-05T22:44:55.644Z,21.36
2022-12-05T22:47:25.813Z,21.34
2022-12-05T22:49:53.586Z,21.36
2022-12-05T22:52:21.362Z,21.35
2022-12-05T22:54:49.059Z,21.30
2022-12-05T22:57:16.891Z,21.28
2022-12-05T22:59:44.628Z,21.25
2022-12-05T23:02:12.350Z,21.20
2022-12-05T23:04:40.070Z,21.19
2022-12-05T23:07:07.835Z,21.11
2022-12-05T23:09:35.559Z,21.07
2022-12-05T23:12:05.324Z,21.06
2022-12-05T23:14:33.093Z,21.02
2022-12-05T23:17:00.967Z,20.98
2022-12-05T23:19:28.677Z,20.96
2022-12-05T23:21:56.461Z,20.94
2022-12-05T23:24:24.272Z,20.92
2022-12-05T23:26:51.996Z,20.91
2022-12-05T23:29:22.715Z,20.90
2022-12-05T23:31:55.740Z,20.91
2022-12-05T23:34:23.428Z,20.90
2022-12-05T23:36:51.119Z,20.88
2022-12-05T23:39:21.895Z,20.87
2022-12-05T23:41:50.030Z,20.86
2022-12-05T23:44:17.746Z,20.86
2022-12-05T23:46:45.569Z,20.86
2022-12-05T23:49:13.389Z,20.84
2022-12-05T23:51:41.153Z,20.85
2022-12-05T23:54:08.859Z,20.83
2022-12-05T23:56:36.622Z,20.83
2022-12-05T23:59:04.445Z,20.83
